sensor_id;sensor_type;location;lat;lon;timestamp;pressure;altitude;pressure_sealevel;temperature;humidity
8286;BME280;4181;43.416;24.598;2022-08-19T00:01:13;99500.31;;;27.59;100.00
8286;BME280;4181;43.416;24.598;2022-08-19T00:03:38;99497.94;;;27.61;100.00
8286;BME280;4181;43.416;24.598;2022-08-19T00:06:04;99493.56;;;27.64;100.00
8286;BME280;4181;43.416;24.598;2022-08-19T00:08:29;99490.63;;;27.53;100.00
8286;BME280;4181;43.416;24.598;2022-08-19T00:10:55;99503.16;;;27.63;100.00
8286;BME280;4181;43.416;24.598;2022-08-19T00:13:21;99499.50;;;27.59;100.00
8286;BME280;4181;43.416;24.598;2022-08-19T00:15:47;99499.03;;;27.53;100.00
8286;BME280;4181;43.416;24.598;2022-08-19T00:18:12;99503.09;;;27.59;100.00
8286;BME280;4181;43.416;24.598;2022-08-19T00:20:38;99476.06;;;27.44;100.00
8286;BME280;4181;43.416;24.598;2022-08-19T00:23:06;99508.16;;;27.47;100.00
8286;BME280;4181;43.416;24.598;2022-08-19T00:25:32;99501.66;;;27.42;100.00
8286;BME280;4181;43.416;24.598;2022-08-19T00:27:58;99498.09;;;27.42;100.00
8286;BME280;4181;43.416;24.598;2022-08-19T00:30:25;99500.13;;;27.45;100.00
8286;BME280;4181;43.416;24.598;2022-08-19T00:32:52;99502.38;;;27.36;100.00
8286;BME280;4181;43.416;24.598;2022-08-19T00:35:20;99502.31;;;27.32;100.00
8286;BME280;4181;43.416;24.598;2022-08-19T00:37:47;99493.13;;;27.32;100.00
8286;BME280;4181;43.416;24.598;2022-08-19T00:40:14;99497.47;;;27.29;100.00
8286;BME280;4181;43.416;24.598;2022-08-19T00:42:39;99497.59;;;27.36;100.00
8286;BME280;4181;43.416;24.598;2022-08-19T00:45:12;99500.22;;;27.52;100.00
8286;BME280;4181;43.416;24.598;2022-08-19T00:47:38;99505.06;;;27.55;100.00
8286;BME280;4181;43.416;24.598;2022-08-19T00:50:04;99502.66;;;27.54;100.00
8286;BME280;4181;43.416;24.598;2022-08-19T00:52:33;99513.69;;;27.43;100.00
8286;BME280;4181;43.416;24.598;2022-08-19T00:55:00;99513.13;;;27.30;100.00
8286;BME280;4181;43.416;24.598;2022-08-19T00:57:30;99508.41;;;27.12;100.00
8286;BME280;4181;43.416;24.598;2022-08-19T01:00:06;99519.59;;;27.12;100.00
8286;BME280;4181;43.416;24.598;2022-08-19T01:02:33;99501.91;;;27.08;100.00
8286;BME280;4181;43.416;24.598;2022-08-19T01:05:02;99529.72;;;27.20;100.00
8286;BME280;4181;43.416;24.598;2022-08-19T01:07:29;99515.72;;;27.20;100.00
8286;BME280;4181;43.416;24.598;2022-08-19T01:09:55;99519.69;;;27.19;100.00
8286;BME280;4181;43.416;24.598;2022-08-19T01:12:22;99518.53;;;27.20;100.00
8286;BME280;4181;43.416;24.598;2022-08-19T01:14:48;99524.44;;;27.15;100.00
8286;BME280;4181;43.416;24.598;2022-08-19T01:17:14;99515.41;;;27.02;100.00
8286;BME280;4181;43.416;24.598;2022-08-19T01:19:42;99531.84;;;27.04;100.00
8286;BME280;4181;43.416;24.598;2022-08-19T01:22:34;99529.41;;;27.02;100.00
8286;BME280;4181;43.416;24.598;2022-08-19T01:25:02;99530.94;;;26.96;100.00
8286;BME280;4181;43.416;24.598;2022-08-19T01:27:41;99529.25;;;26.92;100.00
8286;BME280;4181;43.416;24.598;2022-08-19T01:30:09;99519.97;;;26.88;100.00
8286;BME280;4181;43.416;24.598;2022-08-19T01:32:35;99517.28;;;26.50;100.00
8286;BME280;4181;43.416;24.598;2022-08-19T01:35:02;99528.63;;;26.38;100.00
8286;BME280;4181;43.416;24.598;2022-08-19T01:37:28;99514.28;;;26.01;100.00
8286;BME280;4181;43.416;24.598;2022-08-19T01:39:55;99519.09;;;25.81;100.00
8286;BME280;4181;43.416;24.598;2022-08-19T01:42:21;99520.41;;;25.87;100.00
8286;BME280;4181;43.416;24.598;2022-08-19T01:44:47;99527.41;;;25.97;100.00
8286;BME280;4181;43.416;24.598;2022-08-19T01:47:13;99532.84;;;26.09;100.00
8286;BME280;4181;43.416;24.598;2022-08-19T01:49:39;99531.53;;;26.03;100.00
8286;BME280;4181;43.416;24.598;2022-08-19T01:52:05;99529.47;;;26.00;100.00
8286;BME280;4181;43.416;24.598;2022-08-19T01:54:31;99525.78;;;25.96;100.00
8286;BME280;4181;43.416;24.598;2022-08-19T01:57:04;99521.50;;;25.83;100.00
8286;BME280;4181;43.416;24.598;2022-08-19T01:59:31;99524.63;;;25.62;100.00
8286;BME280;4181;43.416;24.598;2022-08-19T02:01:57;99512.25;;;25.44;100.00
8286;BME280;4181;43.416;24.598;2022-08-19T02:04:23;99506.75;;;25.32;100.00
8286;BME280;4181;43.416;24.598;2022-08-19T02:06:50;99490.66;;;25.41;100.00
8286;BME280;4181;43.416;24.598;2022-08-19T02:09:16;99510.31;;;25.64;100.00
8286;BME280;4181;43.416;24.598;2022-08-19T02:11:41;99516.81;;;25.87;100.00
8286;BME280;4181;43.416;24.598;2022-08-19T02:14:07;99518.13;;;25.93;100.00
8286;BME280;4181;43.416;24.598;2022-08-19T02:16:34;99515.03;;;25.98;100.00
8286;BME280;4181;43.416;24.598;2022-08-19T02:19:00;99514.22;;;25.97;100.00
8286;BME280;4181;43.416;24.598;2022-08-19T02:21:26;99526.88;;;25.91;100.00
8286;BME280;4181;43.416;24.598;2022-08-19T02:23:52;99520.91;;;25.74;100.00
8286;BME280;4181;43.416;24.598;2022-08-19T02:26:18;99527.63;;;25.54;100.00
8286;BME280;4181;43.416;24.598;2022-08-19T02:28:44;99528.44;;;25.35;100.00
8286;BME280;4181;43.416;24.598;2022-08-19T02:31:12;99526.59;;;25.27;100.00
8286;BME280;4181;43.416;24.598;2022-08-19T02:33:38;99524.75;;;25.00;100.00
8286;BME280;4181;43.416;24.598;2022-08-19T02:36:05;99525.13;;;24.83;100.00
8286;BME280;4181;43.416;24.598;2022-08-19T02:38:31;99517.53;;;24.99;100.00
8286;BME280;4181;43.416;24.598;2022-08-19T02:44:05;99516.41;;;25.50;100.00
8286;BME280;4181;43.416;24.598;2022-08-19T02:46:31;99523.69;;;25.55;100.00
8286;BME280;4181;43.416;24.598;2022-08-19T02:49:00;99529.81;;;25.60;100.00
8286;BME280;4181;43.416;24.598;2022-08-19T02:51:33;99529.09;;;25.48;100.00
8286;BME280;4181;43.416;24.598;2022-08-19T02:53:59;99517.56;;;25.34;100.00
8286;BME280;4181;43.416;24.598;2022-08-19T02:56:25;99534.91;;;25.39;100.00
8286;BME280;4181;43.416;24.598;2022-08-19T02:58:54;99531.28;;;25.39;100.00
8286;BME280;4181;43.416;24.598;2022-08-19T03:01:30;99547.75;;;25.44;100.00
8286;BME280;4181;43.416;24.598;2022-08-19T03:03:58;99547.88;;;25.16;100.00
8286;BME280;4181;43.416;24.598;2022-08-19T03:06:28;99538.34;;;24.86;100.00
8286;BME280;4181;43.416;24.598;2022-08-19T03:08:54;99540.88;;;24.91;100.00
8286;BME280;4181;43.416;24.598;2022-08-19T03:11:22;99557.16;;;24.89;100.00
8286;BME280;4181;43.416;24.598;2022-08-19T03:13:50;99550.69;;;24.85;100.00
8286;BME280;4181;43.416;24.598;2022-08-19T03:16:17;99551.38;;;24.82;100.00
8286;BME280;4181;43.416;24.598;2022-08-19T03:18:42;99556.34;;;24.73;100.00
8286;BME280;4181;43.416;24.598;2022-08-19T03:21:09;99553.34;;;24.66;100.00
8286;BME280;4181;43.416;24.598;2022-08-19T03:23:35;99527.03;;;24.67;100.00
8286;BME280;4181;43.416;24.598;2022-08-19T03:26:04;99549.38;;;24.67;100.00
8286;BME280;4181;43.416;24.598;2022-08-19T03:28:30;99545.50;;;24.56;100.00
8286;BME280;4181;43.416;24.598;2022-08-19T03:30:58;99547.53;;;24.71;100.00
8286;BME280;4181;43.416;24.598;2022-08-19T03:33:26;99547.06;;;24.69;100.00
8286;BME280;4181;43.416;24.598;2022-08-19T03:38:33;99549.44;;;24.98;100.00
8286;BME280;4181;43.416;24.598;2022-08-19T03:41:11;99556.53;;;24.95;100.00
8286;BME280;4181;43.416;24.598;2022-08-19T03:43:38;99548.97;;;24.96;100.00
8286;BME280;4181;43.416;24.598;2022-08-19T03:46:10;99560.03;;;24.92;100.00
8286;BME280;4181;43.416;24.598;2022-08-19T03:48:37;99562.50;;;24.78;100.00
8286;BME280;4181;43.416;24.598;2022-08-19T03:51:04;99545.03;;;24.81;100.00
8286;BME280;4181;43.416;24.598;2022-08-19T03:53:31;99555.19;;;25.05;100.00
8286;BME280;4181;43.416;24.598;2022-08-19T03:55:58;99558.84;;;25.25;100.00
8286;BME280;4181;43.416;24.598;2022-08-19T03:58:28;99561.31;;;25.42;100.00
8286;BME280;4181;43.416;24.598;2022-08-19T04:00:55;99567.56;;;25.54;100.00
8286;BME280;4181;43.416;24.598;2022-08-19T04:03:22;99567.03;;;25.49;100.00
8286;BME280;4181;43.416;24.598;2022-08-19T04:05:47;99573.81;;;25.48;100.00
8286;BME280;4181;43.416;24.598;2022-08-19T04:08:14;99580.72;;;25.54;100.00
8286;BME280;4181;43.416;24.598;2022-08-19T04:10:43;99565.03;;;25.65;100.00
8286;BME280;4181;43.416;24.598;2022-08-19T04:13:08;99568.81;;;25.91;100.00
8286;BME280;4181;43.416;24.598;2022-08-19T04:15:39;99575.53;;;26.06;100.00
8286;BME280;4181;43.416;24.598;2022-08-19T04:18:06;99582.69;;;26.23;100.00
8286;BME280;4181;43.416;24.598;2022-08-19T04:20:45;99580.47;;;26.32;100.00
8286;BME280;4181;43.416;24.598;2022-08-19T04:23:12;99573.69;;;26.33;100.00
8286;BME280;4181;43.416;24.598;2022-08-19T04:25:41;99583.13;;;26.44;100.00
8286;BME280;4181;43.416;24.598;2022-08-19T04:28:08;99581.78;;;26.57;100.00
8286;BME280;4181;43.416;24.598;2022-08-19T04:30:48;99587.50;;;26.83;100.00
8286;BME280;4181;43.416;24.598;2022-08-19T04:33:15;99579.59;;;26.88;100.00
8286;BME280;4181;43.416;24.598;2022-08-19T04:35:44;99592.22;;;27.01;100.00
8286;BME280;4181;43.416;24.598;2022-08-19T04:38:11;99582.81;;;27.13;100.00
8286;BME280;4181;43.416;24.598;2022-08-19T04:40:47;99577.84;;;27.25;100.00
8286;BME280;4181;43.416;24.598;2022-08-19T04:43:32;99566.88;;;27.39;100.00
8286;BME280;4181;43.416;24.598;2022-08-19T04:46:07;99573.66;;;27.65;100.00
8286;BME280;4181;43.416;24.598;2022-08-19T04:48:34;99577.41;;;27.72;100.00
8286;BME280;4181;43.416;24.598;2022-08-19T04:50:59;99570.38;;;27.85;100.00
8286;BME280;4181;43.416;24.598;2022-08-19T04:53:30;99573.97;;;28.12;100.00
8286;BME280;4181;43.416;24.598;2022-08-19T04:55:58;99572.25;;;28.37;100.00
8286;BME280;4181;43.416;24.598;2022-08-19T04:58:25;99583.44;;;28.67;100.00
8286;BME280;4181;43.416;24.598;2022-08-19T05:00:52;99577.28;;;28.91;100.00
8286;BME280;4181;43.416;24.598;2022-08-19T05:03:18;99579.06;;;29.09;100.00
8286;BME280;4181;43.416;24.598;2022-08-19T05:05:45;99578.13;;;29.38;100.00
8286;BME280;4181;43.416;24.598;2022-08-19T05:08:15;99581.00;;;29.49;100.00
8286;BME280;4181;43.416;24.598;2022-08-19T05:10:45;99587.13;;;29.65;100.00
8286;BME280;4181;43.416;24.598;2022-08-19T05:13:12;99594.91;;;29.78;100.00
8286;BME280;4181;43.416;24.598;2022-08-19T05:15:37;99582.09;;;29.88;100.00
8286;BME280;4181;43.416;24.598;2022-08-19T05:18:03;99598.69;;;30.07;100.00
8286;BME280;4181;43.416;24.598;2022-08-19T05:20:46;99590.34;;;30.28;100.00
8286;BME280;4181;43.416;24.598;2022-08-19T05:23:30;99588.84;;;30.55;100.00
8286;BME280;4181;43.416;24.598;2022-08-19T05:25:56;99590.19;;;30.86;100.00
8286;BME280;4181;43.416;24.598;2022-08-19T05:28:21;99594.22;;;31.17;100.00
8286;BME280;4181;43.416;24.598;2022-08-19T05:30:47;99591.41;;;31.45;100.00
8286;BME280;4181;43.416;24.598;2022-08-19T05:33:14;99587.38;;;31.74;100.00
8286;BME280;4181;43.416;24.598;2022-08-19T05:35:40;99585.34;;;31.92;100.00
8286;BME280;4181;43.416;24.598;2022-08-19T05:38:07;99580.00;;;32.15;100.00
8286;BME280;4181;43.416;24.598;2022-08-19T05:40:38;99582.41;;;32.27;100.00
8286;BME280;4181;43.416;24.598;2022-08-19T05:43:05;99588.00;;;32.45;100.00
8286;BME280;4181;43.416;24.598;2022-08-19T05:45:32;99586.38;;;32.33;100.00
8286;BME280;4181;43.416;24.598;2022-08-19T05:47:58;99586.41;;;32.40;100.00
8286;BME280;4181;43.416;24.598;2022-08-19T05:50:24;99585.09;;;32.55;100.00
8286;BME280;4181;43.416;24.598;2022-08-19T05:52:53;99587.06;;;32.65;100.00
8286;BME280;4181;43.416;24.598;2022-08-19T05:55:18;99579.69;;;32.85;100.00
8286;BME280;4181;43.416;24.598;2022-08-19T05:57:46;99576.69;;;33.13;100.00
8286;BME280;4181;43.416;24.598;2022-08-19T06:00:12;99596.72;;;33.37;100.00
8286;BME280;4181;43.416;24.598;2022-08-19T06:02:37;99601.88;;;33.49;100.00
8286;BME280;4181;43.416;24.598;2022-08-19T06:05:04;99588.44;;;33.60;100.00
8286;BME280;4181;43.416;24.598;2022-08-19T06:07:32;99602.91;;;33.65;100.00
8286;BME280;4181;43.416;24.598;2022-08-19T06:09:58;99587.97;;;33.17;100.00
8286;BME280;4181;43.416;24.598;2022-08-19T06:12:23;99592.63;;;32.83;100.00
8286;BME280;4181;43.416;24.598;2022-08-19T06:14:54;99611.31;;;32.63;100.00
8286;BME280;4181;43.416;24.598;2022-08-19T06:17:20;99612.16;;;32.60;100.00
8286;BME280;4181;43.416;24.598;2022-08-19T06:19:50;99611.47;;;32.17;100.00
8286;BME280;4181;43.416;24.598;2022-08-19T06:22:15;99619.97;;;32.06;100.00
8286;BME280;4181;43.416;24.598;2022-08-19T06:24:41;99610.31;;;32.04;100.00
8286;BME280;4181;43.416;24.598;2022-08-19T06:27:07;99613.84;;;32.33;100.00
8286;BME280;4181;43.416;24.598;2022-08-19T06:29:32;99606.56;;;32.35;100.00
8286;BME280;4181;43.416;24.598;2022-08-19T06:32:00;99603.31;;;32.44;100.00
8286;BME280;4181;43.416;24.598;2022-08-19T06:34:28;99601.19;;;32.65;100.00
8286;BME280;4181;43.416;24.598;2022-08-19T06:36:56;99607.28;;;32.57;100.00
8286;BME280;4181;43.416;24.598;2022-08-19T06:39:28;99602.97;;;32.31;100.00
8286;BME280;4181;43.416;24.598;2022-08-19T06:41:57;99616.25;;;32.34;100.00
8286;BME280;4181;43.416;24.598;2022-08-19T06:44:25;99609.03;;;32.23;100.00
8286;BME280;4181;43.416;24.598;2022-08-19T06:46:51;99609.50;;;32.07;100.00
8286;BME280;4181;43.416;24.598;2022-08-19T06:49:17;99613.13;;;32.11;100.00
8286;BME280;4181;43.416;24.598;2022-08-19T06:51:45;99609.09;;;32.05;100.00
8286;BME280;4181;43.416;24.598;2022-08-19T06:54:13;99604.97;;;32.27;100.00
8286;BME280;4181;43.416;24.598;2022-08-19T06:56:39;99602.97;;;32.31;100.00
8286;BME280;4181;43.416;24.598;2022-08-19T06:59:11;99608.22;;;32.22;100.00
8286;BME280;4181;43.416;24.598;2022-08-19T07:01:40;99606.13;;;32.47;100.00
8286;BME280;4181;43.416;24.598;2022-08-19T07:04:08;99598.88;;;32.50;100.00
8286;BME280;4181;43.416;24.598;2022-08-19T07:06:35;99600.09;;;32.45;100.00
8286;BME280;4181;43.416;24.598;2022-08-19T07:09:03;99606.13;;;32.51;100.00
8286;BME280;4181;43.416;24.598;2022-08-19T07:11:31;99601.66;;;32.57;100.00
8286;BME280;4181;43.416;24.598;2022-08-19T07:13:58;99604.81;;;32.69;100.00
8286;BME280;4181;43.416;24.598;2022-08-19T07:16:24;99611.59;;;32.86;100.00
8286;BME280;4181;43.416;24.598;2022-08-19T07:18:50;99597.06;;;32.80;100.00
8286;BME280;4181;43.416;24.598;2022-08-19T07:21:23;99613.56;;;32.96;100.00
8286;BME280;4181;43.416;24.598;2022-08-19T07:23:50;99601.44;;;32.99;100.00
8286;BME280;4181;43.416;24.598;2022-08-19T07:26:27;99602.06;;;33.24;100.00
8286;BME280;4181;43.416;24.598;2022-08-19T07:28:54;99613.00;;;33.18;100.00
8286;BME280;4181;43.416;24.598;2022-08-19T07:31:33;99615.00;;;33.21;100.00
8286;BME280;4181;43.416;24.598;2022-08-19T07:34:04;99615.16;;;33.00;100.00
8286;BME280;4181;43.416;24.598;2022-08-19T07:36:37;99609.44;;;33.11;100.00
8286;BME280;4181;43.416;24.598;2022-08-19T07:39:06;99614.94;;;33.28;100.00
8286;BME280;4181;43.416;24.598;2022-08-19T07:41:34;99604.38;;;33.36;100.00
8286;BME280;4181;43.416;24.598;2022-08-19T07:44:00;99601.84;;;33.52;100.00
8286;BME280;4181;43.416;24.598;2022-08-19T07:46:33;99601.25;;;34.12;100.00
8286;BME280;4181;43.416;24.598;2022-08-19T07:48:59;99596.19;;;34.30;100.00
8286;BME280;4181;43.416;24.598;2022-08-19T07:51:26;99592.13;;;34.31;100.00
8286;BME280;4181;43.416;24.598;2022-08-19T07:53:52;99588.56;;;34.57;100.00
8286;BME280;4181;43.416;24.598;2022-08-19T07:56:19;99587.00;;;34.83;100.00
8286;BME280;4181;43.416;24.598;2022-08-19T07:58:48;99589.28;;;34.31;100.00
8286;BME280;4181;43.416;24.598;2022-08-19T08:01:17;99599.34;;;34.35;100.00
8286;BME280;4181;43.416;24.598;2022-08-19T08:03:43;99583.09;;;34.73;100.00
8286;BME280;4181;43.416;24.598;2022-08-19T08:06:35;99569.84;;;35.20;100.00
8286;BME280;4181;43.416;24.598;2022-08-19T08:09:29;99581.53;;;34.95;100.00
8286;BME280;4181;43.416;24.598;2022-08-19T08:12:01;99583.09;;;34.43;100.00
8286;BME280;4181;43.416;24.598;2022-08-19T08:14:37;99585.47;;;34.48;100.00
8286;BME280;4181;43.416;24.598;2022-08-19T08:17:05;99592.19;;;34.88;100.00
8286;BME280;4181;43.416;24.598;2022-08-19T08:19:31;99576.84;;;35.12;100.00
8286;BME280;4181;43.416;24.598;2022-08-19T08:21:59;99569.63;;;35.30;100.00
8286;BME280;4181;43.416;24.598;2022-08-19T08:24:27;99579.56;;;35.19;100.00
8286;BME280;4181;43.416;24.598;2022-08-19T08:26:52;99575.28;;;35.07;100.00
8286;BME280;4181;43.416;24.598;2022-08-19T08:29:18;99572.69;;;35.43;100.00
8286;BME280;4181;43.416;24.598;2022-08-19T08:31:45;99568.78;;;35.33;100.00
8286;BME280;4181;43.416;24.598;2022-08-19T08:34:12;99571.66;;;35.56;100.00
8286;BME280;4181;43.416;24.598;2022-08-19T08:36:43;99567.19;;;35.79;100.00
8286;BME280;4181;43.416;24.598;2022-08-19T08:39:15;99570.06;;;35.98;100.00
8286;BME280;4181;43.416;24.598;2022-08-19T08:47:23;99545.25;;;36.41;100.00
8286;BME280;4181;43.416;24.598;2022-08-19T08:50:09;99541.72;;;36.89;100.00
8286;BME280;4181;43.416;24.598;2022-08-19T08:52:43;99537.81;;;36.83;100.00
8286;BME280;4181;43.416;24.598;2022-08-19T08:55:16;99550.19;;;37.09;100.00
8286;BME280;4181;43.416;24.598;2022-08-19T08:57:56;99537.69;;;37.38;100.00
8286;BME280;4181;43.416;24.598;2022-08-19T09:00:36;99528.22;;;37.73;100.00
8286;BME280;4181;43.416;24.598;2022-08-19T09:03:27;99524.56;;;38.01;100.00
8286;BME280;4181;43.416;24.598;2022-08-19T09:06:04;99528.22;;;38.02;100.00
8286;BME280;4181;43.416;24.598;2022-08-19T09:11:07;99544.53;;;36.73;100.00
8286;BME280;4181;43.416;24.598;2022-08-19T09:16:13;99530.53;;;36.82;100.00
8286;BME280;4181;43.416;24.598;2022-08-19T09:21:06;99531.16;;;36.90;100.00
8286;BME280;4181;43.416;24.598;2022-08-19T09:23:34;99526.28;;;36.90;100.00
8286;BME280;4181;43.416;24.598;2022-08-19T09:25:59;99518.47;;;37.26;100.00
8286;BME280;4181;43.416;24.598;2022-08-19T09:28:25;99537.59;;;37.26;100.00
8286;BME280;4181;43.416;24.598;2022-08-19T09:30:51;99538.91;;;36.53;100.00
8286;BME280;4181;43.416;24.598;2022-08-19T09:33:16;99531.50;;;36.56;100.00
8286;BME280;4181;43.416;24.598;2022-08-19T09:35:42;99530.88;;;36.09;100.00
8286;BME280;4181;43.416;24.598;2022-08-19T09:38:08;99522.00;;;36.27;100.00
8286;BME280;4181;43.416;24.598;2022-08-19T09:40:33;99525.19;;;36.09;100.00
8286;BME280;4181;43.416;24.598;2022-08-19T09:42:59;99537.81;;;36.08;100.00
8286;BME280;4181;43.416;24.598;2022-08-19T09:45:28;99521.78;;;36.18;100.00
8286;BME280;4181;43.416;24.598;2022-08-19T09:47:54;99528.16;;;36.61;100.00
8286;BME280;4181;43.416;24.598;2022-08-19T09:50:19;99516.13;;;36.89;100.00
8286;BME280;4181;43.416;24.598;2022-08-19T09:52:45;99494.53;;;37.24;100.00
8286;BME280;4181;43.416;24.598;2022-08-19T09:55:12;99508.50;;;37.18;100.00
8286;BME280;4181;43.416;24.598;2022-08-19T09:57:38;99505.13;;;37.07;100.00
8286;BME280;4181;43.416;24.598;2022-08-19T10:00:05;99512.75;;;36.94;100.00
8286;BME280;4181;43.416;24.598;2022-08-19T10:02:31;99504.94;;;37.14;100.00
8286;BME280;4181;43.416;24.598;2022-08-19T10:04:56;99505.56;;;36.90;100.00
8286;BME280;4181;43.416;24.598;2022-08-19T10:07:40;99504.03;;;37.01;100.00
8286;BME280;4181;43.416;24.598;2022-08-19T10:10:06;99491.28;;;37.25;100.00
8286;BME280;4181;43.416;24.598;2022-08-19T10:12:33;99487.22;;;37.23;100.00
8286;BME280;4181;43.416;24.598;2022-08-19T10:14:59;99486.94;;;37.49;100.00
8286;BME280;4181;43.416;24.598;2022-08-19T10:17:25;99476.59;;;37.71;100.00
8286;BME280;4181;43.416;24.598;2022-08-19T10:19:51;99472.56;;;37.97;100.00
8286;BME280;4181;43.416;24.598;2022-08-19T10:22:18;99462.50;;;38.22;100.00
8286;BME280;4181;43.416;24.598;2022-08-19T10:24:45;99460.78;;;38.24;100.00
8286;BME280;4181;43.416;24.598;2022-08-19T10:27:11;99451.38;;;37.98;100.00
8286;BME280;4181;43.416;24.598;2022-08-19T10:29:38;99472.09;;;37.86;100.00
8286;BME280;4181;43.416;24.598;2022-08-19T10:32:07;99464.97;;;38.07;100.00
8286;BME280;4181;43.416;24.598;2022-08-19T10:34:34;99459.66;;;37.80;100.00
8286;BME280;4181;43.416;24.598;2022-08-19T10:37:02;99460.53;;;37.77;100.00
8286;BME280;4181;43.416;24.598;2022-08-19T10:39:35;99456.91;;;37.77;100.00
8286;BME280;4181;43.416;24.598;2022-08-19T10:42:07;99469.47;;;37.63;100.00
8286;BME280;4181;43.416;24.598;2022-08-19T10:44:35;99460.31;;;37.11;100.00
8286;BME280;4181;43.416;24.598;2022-08-19T10:47:02;99467.63;;;36.80;100.00
8286;BME280;4181;43.416;24.598;2022-08-19T10:49:27;99465.59;;;36.45;100.00
8286;BME280;4181;43.416;24.598;2022-08-19T10:51:53;99481.22;;;36.37;100.00
8286;BME280;4181;43.416;24.598;2022-08-19T10:54:36;99466.13;;;36.40;100.00
8286;BME280;4181;43.416;24.598;2022-08-19T10:57:20;99469.66;;;36.79;100.00
8286;BME280;4181;43.416;24.598;2022-08-19T10:59:49;99455.41;;;37.28;100.00
8286;BME280;4181;43.416;24.598;2022-08-19T11:02:15;99462.19;;;37.34;100.00
8286;BME280;4181;43.416;24.598;2022-08-19T11:04:40;99463.31;;;37.20;100.00
8286;BME280;4181;43.416;24.598;2022-08-19T11:07:07;99453.72;;;37.14;100.00
8286;BME280;4181;43.416;24.598;2022-08-19T11:09:39;99455.13;;;37.38;100.00
8286;BME280;4181;43.416;24.598;2022-08-19T11:12:05;99452.00;;;37.49;100.00
8286;BME280;4181;43.416;24.598;2022-08-19T11:14:33;99448.53;;;37.41;100.00
8286;BME280;4181;43.416;24.598;2022-08-19T11:16:59;99447.19;;;37.46;100.00
8286;BME280;4181;43.416;24.598;2022-08-19T11:19:27;99438.66;;;37.74;100.00
8286;BME280;4181;43.416;24.598;2022-08-19T11:21:52;99429.50;;;38.08;100.00
8286;BME280;4181;43.416;24.598;2022-08-19T11:24:25;99438.72;;;37.99;100.00
8286;BME280;4181;43.416;24.598;2022-08-19T11:26:52;99449.56;;;37.47;100.00
8286;BME280;4181;43.416;24.598;2022-08-19T11:29:22;99452.41;;;37.19;100.00
8286;BME280;4181;43.416;24.598;2022-08-19T11:31:51;99439.53;;;36.98;100.00
8286;BME280;4181;43.416;24.598;2022-08-19T11:34:22;99438.88;;;37.07;100.00
8286;BME280;4181;43.416;24.598;2022-08-19T11:36:50;99434.97;;;37.17;100.00
8286;BME280;4181;43.416;24.598;2022-08-19T11:39:18;99432.75;;;37.08;100.00
8286;BME280;4181;43.416;24.598;2022-08-19T11:41:44;99432.75;;;37.08;100.00
8286;BME280;4181;43.416;24.598;2022-08-19T11:44:09;99432.03;;;37.20;100.00
8286;BME280;4181;43.416;24.598;2022-08-19T11:46:37;99416.03;;;37.26;100.00
8286;BME280;4181;43.416;24.598;2022-08-19T11:49:06;99425.72;;;37.29;100.00
8286;BME280;4181;43.416;24.598;2022-08-19T11:51:32;99421.00;;;37.06;100.00
8286;BME280;4181;43.416;24.598;2022-08-19T11:53:59;99422.53;;;37.27;100.00
8286;BME280;4181;43.416;24.598;2022-08-19T11:56:25;99406.31;;;37.52;100.00
8286;BME280;4181;43.416;24.598;2022-08-19T11:58:52;99413.44;;;37.32;100.00
8286;BME280;4181;43.416;24.598;2022-08-19T12:01:20;99414.19;;;37.04;100.00
8286;BME280;4181;43.416;24.598;2022-08-19T12:03:50;99414.25;;;37.16;100.00
8286;BME280;4181;43.416;24.598;2022-08-19T12:06:22;99403.59;;;37.49;100.00
8286;BME280;4181;43.416;24.598;2022-08-19T12:08:51;99398.69;;;37.49;100.00
8286;BME280;4181;43.416;24.598;2022-08-19T12:11:17;99403.94;;;37.51;100.00
8286;BME280;4181;43.416;24.598;2022-08-19T12:13:43;99390.06;;;37.53;100.00
8286;BME280;4181;43.416;24.598;2022-08-19T12:16:18;99386.19;;;37.47;100.00
8286;BME280;4181;43.416;24.598;2022-08-19T12:18:44;99383.06;;;37.41;100.00
8286;BME280;4181;43.416;24.598;2022-08-19T12:21:12;99376.34;;;37.35;100.00
8286;BME280;4181;43.416;24.598;2022-08-19T12:23:39;99378.31;;;37.51;100.00
8286;BME280;4181;43.416;24.598;2022-08-19T12:26:05;99378.97;;;37.42;100.00
8286;BME280;4181;43.416;24.598;2022-08-19T12:28:31;99373.03;;;37.65;100.00
8286;BME280;4181;43.416;24.598;2022-08-19T12:30:57;99375.38;;;37.95;100.00
8286;BME280;4181;43.416;24.598;2022-08-19T12:33:23;99364.81;;;38.21;100.00
8286;BME280;4181;43.416;24.598;2022-08-19T12:35:51;99366.28;;;38.51;100.00
8286;BME280;4181;43.416;24.598;2022-08-19T12:38:17;99362.03;;;38.68;100.00
8286;BME280;4181;43.416;24.598;2022-08-19T12:40:47;99360.59;;;38.63;100.00
8286;BME280;4181;43.416;24.598;2022-08-19T12:43:13;99356.78;;;38.79;100.00
8286;BME280;4181;43.416;24.598;2022-08-19T12:45:41;99346.09;;;39.04;100.00
8286;BME280;4181;43.416;24.598;2022-08-19T12:48:07;99341.41;;;39.10;100.00
8286;BME280;4181;43.416;24.598;2022-08-19T12:50:34;99348.50;;;39.28;100.00
8286;BME280;4181;43.416;24.598;2022-08-19T12:53:00;99342.28;;;39.42;100.00
8286;BME280;4181;43.416;24.598;2022-08-19T12:55:25;99332.06;;;39.53;100.00
8286;BME280;4181;43.416;24.598;2022-08-19T12:57:53;99342.25;;;39.54;100.00
8286;BME280;4181;43.416;24.598;2022-08-19T13:00:21;99337.38;;;39.42;100.00
8286;BME280;4181;43.416;24.598;2022-08-19T13:02:48;99328.59;;;39.37;100.00
8286;BME280;4181;43.416;24.598;2022-08-19T13:05:28;99329.16;;;39.44;100.00
8286;BME280;4181;43.416;24.598;2022-08-19T13:07:55;99334.72;;;39.48;100.00
8286;BME280;4181;43.416;24.598;2022-08-19T13:10:22;99334.41;;;39.46;100.00
8286;BME280;4181;43.416;24.598;2022-08-19T13:12:50;99319.84;;;39.53;100.00
8286;BME280;4181;43.416;24.598;2022-08-19T13:15:18;99325.44;;;39.56;100.00
8286;BME280;4181;43.416;24.598;2022-08-19T13:17:48;99329.13;;;39.22;100.00
8286;BME280;4181;43.416;24.598;2022-08-19T13:20:16;99330.00;;;38.98;100.00
8286;BME280;4181;43.416;24.598;2022-08-19T13:22:42;99341.84;;;38.75;100.00
8286;BME280;4181;43.416;24.598;2022-08-19T13:25:10;99347.81;;;38.30;100.00